sensor_id;sensor_type;location;lat;lon;timestamp;P1;durP1;ratioP1;P2;durP2;ratioP2
34234;SDS011;20500;49.856;20.290;2022-07-06T00:01:30;11.20;;;5.90;;
34234;SDS011;20500;49.856;20.290;2022-07-06T00:04:33;10.50;;;6.10;;
34234;SDS011;20500;49.856;20.290;2022-07-06T00:07:36;10.00;;;5.90;;
34234;SDS011;20500;49.856;20.290;2022-07-06T00:10:39;9.80;;;5.60;;
34234;SDS011;20500;49.856;20.290;2022-07-06T00:13:42;10.20;;;5.90;;
34234;SDS011;20500;49.856;20.290;2022-07-06T00:16:44;10.30;;;5.40;;
34234;SDS011;20500;49.856;20.290;2022-07-06T00:19:47;10.90;;;5.90;;
34234;SDS011;20500;49.856;20.290;2022-07-06T00:22:50;9.90;;;5.80;;
34234;SDS011;20500;49.856;20.290;2022-07-06T00:25:53;10.30;;;5.80;;
34234;SDS011;20500;49.856;20.290;2022-07-06T00:28:56;11.40;;;5.90;;
34234;SDS011;20500;49.856;20.290;2022-07-06T00:31:59;10.30;;;5.90;;
34234;SDS011;20500;49.856;20.290;2022-07-06T00:35:02;10.00;;;5.40;;
34234;SDS011;20500;49.856;20.290;2022-07-06T00:38:06;13.10;;;6.10;;
34234;SDS011;20500;49.856;20.290;2022-07-06T00:41:09;9.70;;;5.20;;
34234;SDS011;20500;49.856;20.290;2022-07-06T00:44:13;10.60;;;5.40;;
34234;SDS011;20500;49.856;20.290;2022-07-06T00:47:16;11.40;;;6.30;;
34234;SDS011;20500;49.856;20.290;2022-07-06T00:50:19;10.90;;;6.40;;
34234;SDS011;20500;49.856;20.290;2022-07-06T00:53:23;11.50;;;6.50;;
34234;SDS011;20500;49.856;20.290;2022-07-06T00:56:26;10.60;;;6.10;;
34234;SDS011;20500;49.856;20.290;2022-07-06T01:02:34;10.80;;;6.60;;
34234;SDS011;20500;49.856;20.290;2022-07-06T01:05:37;11.10;;;7.30;;
34234;SDS011;20500;49.856;20.290;2022-07-06T01:08:40;11.40;;;6.80;;
34234;SDS011;20500;49.856;20.290;2022-07-06T01:11:43;10.80;;;7.40;;
34234;SDS011;20500;49.856;20.290;2022-07-06T01:14:46;11.70;;;6.30;;
34234;SDS011;20500;49.856;20.290;2022-07-06T01:17:50;11.40;;;6.60;;
34234;SDS011;20500;49.856;20.290;2022-07-06T01:21:04;11.20;;;6.20;;
34234;SDS011;20500;49.856;20.290;2022-07-06T01:24:11;10.40;;;6.40;;
34234;SDS011;20500;49.856;20.290;2022-07-06T01:27:14;11.50;;;6.30;;
34234;SDS011;20500;49.856;20.290;2022-07-06T01:30:17;10.80;;;6.10;;
34234;SDS011;20500;49.856;20.290;2022-07-06T01:33:21;11.20;;;5.90;;
34234;SDS011;20500;49.856;20.290;2022-07-06T01:36:24;10.50;;;5.60;;
34234;SDS011;20500;49.856;20.290;2022-07-06T01:39:27;10.30;;;6.30;;
34234;SDS011;20500;49.856;20.290;2022-07-06T01:42:30;11.30;;;6.20;;
34234;SDS011;20500;49.856;20.290;2022-07-06T01:45:33;10.20;;;5.70;;
34234;SDS011;20500;49.856;20.290;2022-07-06T01:48:36;10.50;;;6.20;;
34234;SDS011;20500;49.856;20.290;2022-07-06T01:51:40;10.40;;;5.90;;
34234;SDS011;20500;49.856;20.290;2022-07-06T01:54:42;11.40;;;5.20;;
34234;SDS011;20500;49.856;20.290;2022-07-06T01:57:45;9.20;;;5.40;;
34234;SDS011;20500;49.856;20.290;2022-07-06T02:00:48;8.70;;;4.80;;
34234;SDS011;20500;49.856;20.290;2022-07-06T02:03:51;10.90;;;5.00;;
34234;SDS011;20500;49.856;20.290;2022-07-06T02:06:54;11.20;;;5.60;;
34234;SDS011;20500;49.856;20.290;2022-07-06T02:09:57;9.90;;;5.50;;
34234;SDS011;20500;49.856;20.290;2022-07-06T02:13:00;9.70;;;4.90;;
34234;SDS011;20500;49.856;20.290;2022-07-06T02:16:03;10.60;;;5.20;;
34234;SDS011;20500;49.856;20.290;2022-07-06T02:19:06;11.20;;;5.00;;
34234;SDS011;20500;49.856;20.290;2022-07-06T02:22:09;9.90;;;5.00;;
34234;SDS011;20500;49.856;20.290;2022-07-06T02:25:12;8.60;;;4.70;;
34234;SDS011;20500;49.856;20.290;2022-07-06T02:28:14;9.10;;;4.60;;
34234;SDS011;20500;49.856;20.290;2022-07-06T02:31:17;8.60;;;4.70;;
34234;SDS011;20500;49.856;20.290;2022-07-06T02:34:20;9.80;;;4.30;;
34234;SDS011;20500;49.856;20.290;2022-07-06T02:37:23;10.60;;;4.40;;
34234;SDS011;20500;49.856;20.290;2022-07-06T02:40:26;10.20;;;4.80;;
34234;SDS011;20500;49.856;20.290;2022-07-06T02:43:29;8.30;;;4.30;;
34234;SDS011;20500;49.856;20.290;2022-07-06T02:46:32;8.80;;;4.30;;
34234;SDS011;20500;49.856;20.290;2022-07-06T02:49:35;9.50;;;5.00;;
34234;SDS011;20500;49.856;20.290;2022-07-06T02:52:38;9.50;;;5.30;;
34234;SDS011;20500;49.856;20.290;2022-07-06T02:55:42;9.40;;;4.40;;
34234;SDS011;20500;49.856;20.290;2022-07-06T02:58:45;8.90;;;4.80;;
34234;SDS011;20500;49.856;20.290;2022-07-06T03:01:47;8.90;;;4.60;;
34234;SDS011;20500;49.856;20.290;2022-07-06T03:04:50;10.20;;;5.30;;
34234;SDS011;20500;49.856;20.290;2022-07-06T03:07:53;10.60;;;5.10;;
34234;SDS011;20500;49.856;20.290;2022-07-06T03:10:56;8.90;;;4.90;;
34234;SDS011;20500;49.856;20.290;2022-07-06T03:13:59;11.80;;;5.40;;
34234;SDS011;20500;49.856;20.290;2022-07-06T03:17:04;9.90;;;6.20;;
34234;SDS011;20500;49.856;20.290;2022-07-06T03:20:07;10.00;;;5.80;;
34234;SDS011;20500;49.856;20.290;2022-07-06T03:23:11;10.60;;;6.20;;
34234;SDS011;20500;49.856;20.290;2022-07-06T03:26:14;9.60;;;5.30;;
34234;SDS011;20500;49.856;20.290;2022-07-06T03:29:17;9.60;;;5.50;;
34234;SDS011;20500;49.856;20.290;2022-07-06T03:32:19;9.20;;;5.40;;
34234;SDS011;20500;49.856;20.290;2022-07-06T03:35:22;9.50;;;5.50;;
34234;SDS011;20500;49.856;20.290;2022-07-06T03:38:25;10.20;;;5.60;;
34234;SDS011;20500;49.856;20.290;2022-07-06T03:41:28;11.20;;;5.40;;
34234;SDS011;20500;49.856;20.290;2022-07-06T03:44:31;8.80;;;4.80;;
34234;SDS011;20500;49.856;20.290;2022-07-06T03:47:34;9.80;;;5.10;;
34234;SDS011;20500;49.856;20.290;2022-07-06T03:50:37;9.50;;;5.50;;
34234;SDS011;20500;49.856;20.290;2022-07-06T03:53:40;9.90;;;5.30;;
34234;SDS011;20500;49.856;20.290;2022-07-06T03:56:42;11.50;;;6.20;;
34234;SDS011;20500;49.856;20.290;2022-07-06T03:59:45;11.30;;;6.40;;
34234;SDS011;20500;49.856;20.290;2022-07-06T04:02:48;10.80;;;6.80;;
34234;SDS011;20500;49.856;20.290;2022-07-06T04:05:51;12.00;;;6.90;;
34234;SDS011;20500;49.856;20.290;2022-07-06T04:08:54;11.80;;;6.80;;
34234;SDS011;20500;49.856;20.290;2022-07-06T04:11:57;10.80;;;6.20;;
34234;SDS011;20500;49.856;20.290;2022-07-06T04:15:00;11.20;;;6.20;;
34234;SDS011;20500;49.856;20.290;2022-07-06T04:18:03;13.00;;;6.30;;
34234;SDS011;20500;49.856;20.290;2022-07-06T04:21:07;10.90;;;6.50;;
34234;SDS011;20500;49.856;20.290;2022-07-06T04:24:09;10.90;;;6.20;;
34234;SDS011;20500;49.856;20.290;2022-07-06T04:27:12;10.60;;;6.50;;
34234;SDS011;20500;49.856;20.290;2022-07-06T04:30:15;10.00;;;6.30;;
34234;SDS011;20500;49.856;20.290;2022-07-06T04:33:18;12.60;;;6.60;;
34234;SDS011;20500;49.856;20.290;2022-07-06T04:36:21;13.90;;;6.40;;
34234;SDS011;20500;49.856;20.290;2022-07-06T04:39:24;10.60;;;6.00;;
34234;SDS011;20500;49.856;20.290;2022-07-06T04:42:27;10.20;;;5.80;;
34234;SDS011;20500;49.856;20.290;2022-07-06T04:45:30;10.00;;;6.10;;
34234;SDS011;20500;49.856;20.290;2022-07-06T04:48:33;11.30;;;6.10;;
34234;SDS011;20500;49.856;20.290;2022-07-06T04:51:40;11.20;;;5.80;;
34234;SDS011;20500;49.856;20.290;2022-07-06T04:54:43;10.90;;;6.20;;
34234;SDS011;20500;49.856;20.290;2022-07-06T04:57:46;12.00;;;6.00;;
34234;SDS011;20500;49.856;20.290;2022-07-06T05:00:49;11.80;;;5.70;;
34234;SDS011;20500;49.856;20.290;2022-07-06T05:03:52;10.40;;;5.90;;
34234;SDS011;20500;49.856;20.290;2022-07-06T05:06:55;11.50;;;6.00;;
34234;SDS011;20500;49.856;20.290;2022-07-06T05:09:58;11.00;;;5.70;;
34234;SDS011;20500;49.856;20.290;2022-07-06T05:13:00;10.70;;;5.60;;
34234;SDS011;20500;49.856;20.290;2022-07-06T05:16:04;9.90;;;5.40;;
34234;SDS011;20500;49.856;20.290;2022-07-06T05:19:07;11.00;;;5.80;;
34234;SDS011;20500;49.856;20.290;2022-07-06T05:22:10;9.90;;;5.10;;
34234;SDS011;20500;49.856;20.290;2022-07-06T05:25:13;9.40;;;5.30;;
34234;SDS011;20500;49.856;20.290;2022-07-06T05:28:16;11.00;;;5.50;;
34234;SDS011;20500;49.856;20.290;2022-07-06T05:31:19;10.90;;;5.80;;
34234;SDS011;20500;49.856;20.290;2022-07-06T05:34:22;9.90;;;4.90;;
34234;SDS011;20500;49.856;20.290;2022-07-06T05:37:25;10.70;;;5.30;;
34234;SDS011;20500;49.856;20.290;2022-07-06T05:40:27;10.20;;;5.20;;
34234;SDS011;20500;49.856;20.290;2022-07-06T05:43:30;9.40;;;5.10;;
34234;SDS011;20500;49.856;20.290;2022-07-06T05:46:33;9.00;;;4.90;;
34234;SDS011;20500;49.856;20.290;2022-07-06T05:49:36;9.60;;;4.70;;
34234;SDS011;20500;49.856;20.290;2022-07-06T05:52:58;9.10;;;4.50;;
34234;SDS011;20500;49.856;20.290;2022-07-06T05:56:12;9.90;;;4.70;;
34234;SDS011;20500;49.856;20.290;2022-07-06T05:59:15;10.80;;;4.50;;
34234;SDS011;20500;49.856;20.290;2022-07-06T06:02:18;9.90;;;4.00;;
34234;SDS011;20500;49.856;20.290;2022-07-06T06:05:21;8.50;;;4.00;;
34234;SDS011;20500;49.856;20.290;2022-07-06T06:08:26;12.20;;;4.60;;
34234;SDS011;20500;49.856;20.290;2022-07-06T06:11:29;7.90;;;3.60;;
34234;SDS011;20500;49.856;20.290;2022-07-06T06:14:32;8.30;;;3.40;;
34234;SDS011;20500;49.856;20.290;2022-07-06T06:17:35;8.30;;;3.50;;
34234;SDS011;20500;49.856;20.290;2022-07-06T06:20:39;7.90;;;3.50;;
34234;SDS011;20500;49.856;20.290;2022-07-06T06:23:42;6.40;;;3.10;;
34234;SDS011;20500;49.856;20.290;2022-07-06T06:26:44;8.20;;;3.50;;
34234;SDS011;20500;49.856;20.290;2022-07-06T06:29:47;7.00;;;2.90;;
34234;SDS011;20500;49.856;20.290;2022-07-06T06:32:50;7.10;;;3.50;;
34234;SDS011;20500;49.856;20.290;2022-07-06T06:35:53;8.80;;;3.10;;
34234;SDS011;20500;49.856;20.290;2022-07-06T06:38:56;6.10;;;2.80;;
34234;SDS011;20500;49.856;20.290;2022-07-06T06:41:58;6.90;;;3.30;;
34234;SDS011;20500;49.856;20.290;2022-07-06T06:45:01;8.50;;;3.30;;
34234;SDS011;20500;49.856;20.290;2022-07-06T06:48:05;7.90;;;3.40;;
34234;SDS011;20500;49.856;20.290;2022-07-06T06:51:13;7.60;;;3.10;;
34234;SDS011;20500;49.856;20.290;2022-07-06T06:54:16;5.90;;;2.70;;
34234;SDS011;20500;49.856;20.290;2022-07-06T06:57:19;7.80;;;3.40;;
34234;SDS011;20500;49.856;20.290;2022-07-06T07:00:22;10.40;;;3.80;;
34234;SDS011;20500;49.856;20.290;2022-07-06T07:03:25;6.20;;;3.20;;
34234;SDS011;20500;49.856;20.290;2022-07-06T07:06:28;10.20;;;3.80;;
34234;SDS011;20500;49.856;20.290;2022-07-06T07:09:30;10.20;;;4.30;;
34234;SDS011;20500;49.856;20.290;2022-07-06T07:12:33;12.40;;;6.20;;
34234;SDS011;20500;49.856;20.290;2022-07-06T07:15:36;11.10;;;5.20;;
34234;SDS011;20500;49.856;20.290;2022-07-06T07:18:39;9.70;;;4.20;;
34234;SDS011;20500;49.856;20.290;2022-07-06T07:21:42;9.90;;;4.50;;
34234;SDS011;20500;49.856;20.290;2022-07-06T07:24:45;14.00;;;7.70;;
34234;SDS011;20500;49.856;20.290;2022-07-06T07:27:48;11.20;;;5.70;;
34234;SDS011;20500;49.856;20.290;2022-07-06T07:30:51;7.80;;;3.20;;
34234;SDS011;20500;49.856;20.290;2022-07-06T07:33:54;13.00;;;7.80;;
34234;SDS011;20500;49.856;20.290;2022-07-06T07:37:00;13.80;;;8.30;;
34234;SDS011;20500;49.856;20.290;2022-07-06T07:40:04;10.00;;;4.50;;
34234;SDS011;20500;49.856;20.290;2022-07-06T07:43:08;9.80;;;3.50;;
34234;SDS011;20500;49.856;20.290;2022-07-06T07:46:10;9.00;;;3.60;;
34234;SDS011;20500;49.856;20.290;2022-07-06T07:49:14;11.00;;;5.00;;
34234;SDS011;20500;49.856;20.290;2022-07-06T07:52:22;9.90;;;4.80;;
34234;SDS011;20500;49.856;20.290;2022-07-06T07:55:25;11.10;;;5.40;;
34234;SDS011;20500;49.856;20.290;2022-07-06T07:58:42;9.70;;;3.70;;
34234;SDS011;20500;49.856;20.290;2022-07-06T08:01:45;7.30;;;3.10;;
34234;SDS011;20500;49.856;20.290;2022-07-06T08:04:48;8.50;;;3.40;;
34234;SDS011;20500;49.856;20.290;2022-07-06T08:07:51;12.80;;;7.30;;
34234;SDS011;20500;49.856;20.290;2022-07-06T08:10:54;14.80;;;9.40;;
34234;SDS011;20500;49.856;20.290;2022-07-06T08:14:17;9.10;;;4.50;;
34234;SDS011;20500;49.856;20.290;2022-07-06T08:17:20;9.30;;;3.80;;
34234;SDS011;20500;49.856;20.290;2022-07-06T08:20:22;8.20;;;3.70;;
34234;SDS011;20500;49.856;20.290;2022-07-06T08:23:25;9.90;;;3.80;;
34234;SDS011;20500;49.856;20.290;2022-07-06T08:26:29;7.90;;;3.60;;
34234;SDS011;20500;49.856;20.290;2022-07-06T08:29:32;8.70;;;3.80;;
34234;SDS011;20500;49.856;20.290;2022-07-06T08:32:37;13.60;;;8.60;;
34234;SDS011;20500;49.856;20.290;2022-07-06T08:36:01;11.40;;;5.80;;
34234;SDS011;20500;49.856;20.290;2022-07-06T08:39:04;10.10;;;4.80;;
34234;SDS011;20500;49.856;20.290;2022-07-06T08:42:07;9.40;;;4.70;;
34234;SDS011;20500;49.856;20.290;2022-07-06T08:45:12;10.60;;;5.00;;
34234;SDS011;20500;49.856;20.290;2022-07-06T08:48:15;11.90;;;6.00;;
34234;SDS011;20500;49.856;20.290;2022-07-06T08:51:20;10.60;;;4.50;;
34234;SDS011;20500;49.856;20.290;2022-07-06T08:54:30;8.00;;;3.90;;
34234;SDS011;20500;49.856;20.290;2022-07-06T08:57:35;8.60;;;3.50;;
34234;SDS011;20500;49.856;20.290;2022-07-06T09:00:41;8.70;;;3.70;;
34234;SDS011;20500;49.856;20.290;2022-07-06T09:03:44;8.30;;;3.60;;
34234;SDS011;20500;49.856;20.290;2022-07-06T09:06:50;9.50;;;4.10;;
34234;SDS011;20500;49.856;20.290;2022-07-06T09:09:55;8.40;;;3.90;;
34234;SDS011;20500;49.856;20.290;2022-07-06T09:13:02;8.70;;;3.50;;
34234;SDS011;20500;49.856;20.290;2022-07-06T09:16:09;9.20;;;3.40;;
34234;SDS011;20500;49.856;20.290;2022-07-06T09:19:34;8.70;;;4.00;;
34234;SDS011;20500;49.856;20.290;2022-07-06T09:22:37;9.30;;;3.80;;
34234;SDS011;20500;49.856;20.290;2022-07-06T09:25:41;12.50;;;6.50;;
34234;SDS011;20500;49.856;20.290;2022-07-06T09:28:44;11.00;;;5.10;;
34234;SDS011;20500;49.856;20.290;2022-07-06T09:31:55;12.30;;;4.20;;
34234;SDS011;20500;49.856;20.290;2022-07-06T09:34:59;11.20;;;4.30;;
34234;SDS011;20500;49.856;20.290;2022-07-06T09:38:04;8.30;;;3.40;;
34234;SDS011;20500;49.856;20.290;2022-07-06T09:41:09;8.40;;;3.60;;
34234;SDS011;20500;49.856;20.290;2022-07-06T09:44:11;10.70;;;5.60;;
34234;SDS011;20500;49.856;20.290;2022-07-06T09:47:14;10.90;;;5.90;;
34234;SDS011;20500;49.856;20.290;2022-07-06T09:50:17;13.30;;;7.70;;
34234;SDS011;20500;49.856;20.290;2022-07-06T09:53:21;18.40;;;13.10;;
34234;SDS011;20500;49.856;20.290;2022-07-06T09:56:35;19.60;;;15.70;;
34234;SDS011;20500;49.856;20.290;2022-07-06T09:59:39;20.40;;;16.70;;
34234;SDS011;20500;49.856;20.290;2022-07-06T10:02:42;18.50;;;15.00;;
34234;SDS011;20500;49.856;20.290;2022-07-06T10:05:45;20.00;;;17.30;;
34234;SDS011;20500;49.856;20.290;2022-07-06T10:08:50;24.80;;;19.10;;
34234;SDS011;20500;49.856;20.290;2022-07-06T10:11:54;23.00;;;18.50;;
34234;SDS011;20500;49.856;20.290;2022-07-06T10:14:58;21.40;;;18.60;;
34234;SDS011;20500;49.856;20.290;2022-07-06T10:18:03;22.70;;;19.40;;
34234;SDS011;20500;49.856;20.290;2022-07-06T10:21:07;27.30;;;22.80;;
34234;SDS011;20500;49.856;20.290;2022-07-06T10:24:12;22.80;;;20.00;;
34234;SDS011;20500;49.856;20.290;2022-07-06T10:27:15;21.80;;;19.30;;
34234;SDS011;20500;49.856;20.290;2022-07-06T10:30:18;24.60;;;20.30;;
34234;SDS011;20500;49.856;20.290;2022-07-06T10:33:21;24.30;;;20.80;;
34234;SDS011;20500;49.856;20.290;2022-07-06T10:36:29;25.20;;;21.20;;
34234;SDS011;20500;49.856;20.290;2022-07-06T10:39:33;22.40;;;18.90;;
34234;SDS011;20500;49.856;20.290;2022-07-06T10:42:59;23.40;;;19.60;;
34234;SDS011;20500;49.856;20.290;2022-07-06T10:46:06;25.00;;;20.30;;
34234;SDS011;20500;49.856;20.290;2022-07-06T10:49:15;25.00;;;19.00;;
34234;SDS011;20500;49.856;20.290;2022-07-06T10:56:02;20.20;;;15.60;;
34234;SDS011;20500;49.856;20.290;2022-07-06T10:59:09;19.40;;;15.90;;
34234;SDS011;20500;49.856;20.290;2022-07-06T11:02:14;22.40;;;16.60;;
34234;SDS011;20500;49.856;20.290;2022-07-06T11:05:40;18.00;;;14.70;;
34234;SDS011;20500;49.856;20.290;2022-07-06T11:09:04;20.60;;;15.60;;
34234;SDS011;20500;49.856;20.290;2022-07-06T11:12:15;18.90;;;13.80;;
34234;SDS011;20500;49.856;20.290;2022-07-06T11:18:50;17.40;;;12.70;;
34234;SDS011;20500;49.856;20.290;2022-07-06T11:22:05;14.90;;;11.20;;
34234;SDS011;20500;49.856;20.290;2022-07-06T11:25:10;16.00;;;11.30;;
34234;SDS011;20500;49.856;20.290;2022-07-06T11:28:13;14.10;;;10.70;;
34234;SDS011;20500;49.856;20.290;2022-07-06T11:31:17;14.00;;;9.50;;
34234;SDS011;20500;49.856;20.290;2022-07-06T11:34:21;11.50;;;7.40;;
34234;SDS011;20500;49.856;20.290;2022-07-06T11:37:25;11.30;;;8.10;;
34234;SDS011;20500;49.856;20.290;2022-07-06T11:40:28;15.70;;;8.90;;
34234;SDS011;20500;49.856;20.290;2022-07-06T11:43:31;13.00;;;8.00;;
34234;SDS011;20500;49.856;20.290;2022-07-06T11:46:34;13.60;;;9.10;;
34234;SDS011;20500;49.856;20.290;2022-07-06T11:49:37;14.70;;;10.40;;
34234;SDS011;20500;49.856;20.290;2022-07-06T11:52:41;13.60;;;8.70;;
34234;SDS011;20500;49.856;20.290;2022-07-06T11:55:44;11.10;;;6.80;;
34234;SDS011;20500;49.856;20.290;2022-07-06T11:58:49;11.80;;;7.10;;
34234;SDS011;20500;49.856;20.290;2022-07-06T12:01:59;10.10;;;5.80;;
34234;SDS011;20500;49.856;20.290;2022-07-06T12:05:03;9.80;;;4.90;;
34234;SDS011;20500;49.856;20.290;2022-07-06T12:08:08;10.40;;;5.10;;
34234;SDS011;20500;49.856;20.290;2022-07-06T12:11:11;12.60;;;8.00;;
34234;SDS011;20500;49.856;20.290;2022-07-06T12:14:21;14.40;;;9.80;;
34234;SDS011;20500;49.856;20.290;2022-07-06T12:17:24;11.40;;;5.50;;
34234;SDS011;20500;49.856;20.290;2022-07-06T12:20:27;10.30;;;5.20;;
34234;SDS011;20500;49.856;20.290;2022-07-06T12:23:38;10.10;;;5.20;;
34234;SDS011;20500;49.856;20.290;2022-07-06T12:26:41;11.50;;;5.10;;
34234;SDS011;20500;49.856;20.290;2022-07-06T12:29:44;9.60;;;4.90;;
34234;SDS011;20500;49.856;20.290;2022-07-06T12:32:48;8.50;;;4.50;;
34234;SDS011;20500;49.856;20.290;2022-07-06T12:36:14;10.50;;;4.70;;
34234;SDS011;20500;49.856;20.290;2022-07-06T12:39:18;9.20;;;5.20;;
34234;SDS011;20500;49.856;20.290;2022-07-06T12:42:22;9.60;;;4.80;;
34234;SDS011;20500;49.856;20.290;2022-07-06T12:45:26;8.70;;;4.40;;
34234;SDS011;20500;49.856;20.290;2022-07-06T12:48:29;9.60;;;4.40;;
34234;SDS011;20500;49.856;20.290;2022-07-06T12:54:53;7.80;;;3.60;;
34234;SDS011;20500;49.856;20.290;2022-07-06T12:57:56;8.60;;;3.20;;
34234;SDS011;20500;49.856;20.290;2022-07-06T13:01:00;7.10;;;3.30;;
34234;SDS011;20500;49.856;20.290;2022-07-06T13:04:08;8.50;;;3.10;;
34234;SDS011;20500;49.856;20.290;2022-07-06T13:07:18;10.10;;;3.10;;
34234;SDS011;20500;49.856;20.290;2022-07-06T13:10:21;7.10;;;2.90;;
34234;SDS011;20500;49.856;20.290;2022-07-06T13:13:25;7.70;;;2.80;;
34234;SDS011;20500;49.856;20.290;2022-07-06T13:16:29;6.50;;;2.90;;
34234;SDS011;20500;49.856;20.290;2022-07-06T13:19:35;7.10;;;2.60;;
34234;SDS011;20500;49.856;20.290;2022-07-06T13:22:38;13.30;;;6.70;;
34234;SDS011;20500;49.856;20.290;2022-07-06T13:25:41;5.90;;;3.00;;
34234;SDS011;20500;49.856;20.290;2022-07-06T13:28:44;8.30;;;3.40;;
34234;SDS011;20500;49.856;20.290;2022-07-06T13:31:47;7.60;;;2.90;;
34234;SDS011;20500;49.856;20.290;2022-07-06T13:34:50;8.30;;;3.60;;
34234;SDS011;20500;49.856;20.290;2022-07-06T13:37:53;4.80;;;2.20;;
34234;SDS011;20500;49.856;20.290;2022-07-06T13:40:56;4.20;;;2.00;;
34234;SDS011;20500;49.856;20.290;2022-07-06T13:43:58;6.60;;;2.20;;
34234;SDS011;20500;49.856;20.290;2022-07-06T13:47:02;6.10;;;2.10;;
34234;SDS011;20500;49.856;20.290;2022-07-06T13:50:06;6.70;;;2.00;;
34234;SDS011;20500;49.856;20.290;2022-07-06T13:53:10;5.60;;;1.90;;
34234;SDS011;20500;49.856;20.290;2022-07-06T13:56:13;6.10;;;2.20;;
34234;SDS011;20500;49.856;20.290;2022-07-06T13:59:16;4.70;;;1.90;;
34234;SDS011;20500;49.856;20.290;2022-07-06T14:02:18;4.90;;;2.10;;
34234;SDS011;20500;49.856;20.290;2022-07-06T14:05:21;8.70;;;3.80;;
34234;SDS011;20500;49.856;20.290;2022-07-06T14:08:25;9.00;;;4.30;;
34234;SDS011;20500;49.856;20.290;2022-07-06T14:11:28;8.90;;;3.60;;
34234;SDS011;20500;49.856;20.290;2022-07-06T14:14:31;9.10;;;3.80;;
34234;SDS011;20500;49.856;20.290;2022-07-06T14:17:34;8.50;;;3.50;;
34234;SDS011;20500;49.856;20.290;2022-07-06T14:20:37;8.00;;;3.50;;
34234;SDS011;20500;49.856;20.290;2022-07-06T14:23:40;7.50;;;3.60;;
34234;SDS011;20500;49.856;20.290;2022-07-06T14:26:42;7.50;;;3.20;;
34234;SDS011;20500;49.856;20.290;2022-07-06T14:29:45;6.50;;;2.90;;
34234;SDS011;20500;49.856;20.290;2022-07-06T14:32:48;6.90;;;2.80;;
34234;SDS011;20500;49.856;20.290;2022-07-06T14:35:52;8.10;;;3.20;;
34234;SDS011;20500;49.856;20.290;2022-07-06T14:38:55;6.60;;;3.00;;
34234;SDS011;20500;49.856;20.290;2022-07-06T14:41:58;9.50;;;3.70;;
34234;SDS011;20500;49.856;20.290;2022-07-06T14:45:01;8.60;;;3.60;;
34234;SDS011;20500;49.856;20.290;2022-07-06T14:48:05;8.70;;;3.80;;
34234;SDS011;20500;49.856;20.290;2022-07-06T14:51:08;8.80;;;3.70;;
34234;SDS011;20500;49.856;20.290;2022-07-06T14:54:11;9.40;;;3.90;;
34234;SDS011;20500;49.856;20.290;2022-07-06T14:57:13;9.40;;;3.60;;
34234;SDS011;20500;49.856;20.290;2022-07-06T15:00:17;8.40;;;4.00;;
34234;SDS011;20500;49.856;20.290;2022-07-06T15:03:20;8.10;;;3.90;;
34234;SDS011;20500;49.856;20.290;2022-07-06T15:06:23;9.90;;;4.50;;
34234;SDS011;20500;49.856;20.290;2022-07-06T15:09:45;9.40;;;4.70;;
34234;SDS011;20500;49.856;20.290;2022-07-06T15:12:48;9.40;;;4.60;;
34234;SDS011;20500;49.856;20.290;2022-07-06T15:15:51;9.70;;;5.00;;
34234;SDS011;20500;49.856;20.290;2022-07-06T15:18:59;8.50;;;4.70;;
34234;SDS011;20500;49.856;20.290;2022-07-06T15:22:02;13.70;;;4.70;;
34234;SDS011;20500;49.856;20.290;2022-07-06T15:25:07;7.80;;;4.00;;
34234;SDS011;20500;49.856;20.290;2022-07-06T15:28:11;8.80;;;3.90;;
34234;SDS011;20500;49.856;20.290;2022-07-06T15:31:15;8.70;;;4.00;;
34234;SDS011;20500;49.856;20.290;2022-07-06T15:34:24;9.10;;;4.40;;
34234;SDS011;20500;49.856;20.290;2022-07-06T15:37:27;10.90;;;5.40;;
34234;SDS011;20500;49.856;20.290;2022-07-06T15:40:30;8.90;;;4.40;;
34234;SDS011;20500;49.856;20.290;2022-07-06T15:43:59;10.70;;;5.10;;
34234;SDS011;20500;49.856;20.290;2022-07-06T15:47:03;9.20;;;4.10;;
34234;SDS011;20500;49.856;20.290;2022-07-06T15:50:09;11.40;;;4.20;;
34234;SDS011;20500;49.856;20.290;2022-07-06T15:53:12;9.90;;;4.20;;
34234;SDS011;20500;49.856;20.290;2022-07-06T15:56:15;9.00;;;4.10;;
34234;SDS011;20500;49.856;20.290;2022-07-06T15:59:18;8.30;;;4.20;;
34234;SDS011;20500;49.856;20.290;2022-07-06T16:02:21;7.70;;;3.80;;
34234;SDS011;20500;49.856;20.290;2022-07-06T16:05:25;9.60;;;4.40;;
34234;SDS011;20500;49.856;20.290;2022-07-06T16:08:48;10.30;;;4.20;;
34234;SDS011;20500;49.856;20.290;2022-07-06T16:11:51;9.20;;;4.40;;
34234;SDS011;20500;49.856;20.290;2022-07-06T16:14:53;8.80;;;4.00;;
34234;SDS011;20500;49.856;20.290;2022-07-06T16:17:56;8.70;;;3.80;;
34234;SDS011;20500;49.856;20.290;2022-07-06T16:21:00;10.20;;;5.40;;
34234;SDS011;20500;49.856;20.290;2022-07-06T16:24:03;9.40;;;4.20;;
34234;SDS011;20500;49.856;20.290;2022-07-06T16:27:07;9.60;;;4.60;;
34234;SDS011;20500;49.856;20.290;2022-07-06T16:30:11;10.50;;;4.50;;
34234;SDS011;20500;49.856;20.290;2022-07-06T16:33:22;8.80;;;4.10;;
34234;SDS011;20500;49.856;20.290;2022-07-06T16:36:26;9.20;;;4.50;;
34234;SDS011;20500;49.856;20.290;2022-07-06T16:39:28;9.40;;;3.80;;
34234;SDS011;20500;49.856;20.290;2022-07-06T16:42:31;7.70;;;3.50;;
34234;SDS011;20500;49.856;20.290;2022-07-06T16:45:34;8.00;;;3.90;;
34234;SDS011;20500;49.856;20.290;2022-07-06T16:48:37;9.00;;;3.90;;
34234;SDS011;20500;49.856;20.290;2022-07-06T16:51:40;8.00;;;3.90;;
34234;SDS011;20500;49.856;20.290;2022-07-06T16:54:43;10.90;;;4.40;;
34234;SDS011;20500;49.856;20.290;2022-07-06T16:57:46;10.50;;;4.60;;
34234;SDS011;20500;49.856;20.290;2022-07-06T17:00:48;9.10;;;4.60;;
34234;SDS011;20500;49.856;20.290;2022-07-06T17:03:51;12.40;;;5.20;;
34234;SDS011;20500;49.856;20.290;2022-07-06T17:06:56;10.00;;;4.50;;
34234;SDS011;20500;49.856;20.290;2022-07-06T17:09:59;9.60;;;4.30;;
34234;SDS011;20500;49.856;20.290;2022-07-06T17:13:02;10.10;;;4.40;;
34234;SDS011;20500;49.856;20.290;2022-07-06T17:16:05;8.10;;;4.30;;
34234;SDS011;20500;49.856;20.290;2022-07-06T17:19:08;9.80;;;4.00;;
34234;SDS011;20500;49.856;20.290;2022-07-06T17:22:11;9.80;;;4.40;;
34234;SDS011;20500;49.856;20.290;2022-07-06T17:25:14;9.30;;;4.10;;
34234;SDS011;20500;49.856;20.290;2022-07-06T17:28:17;9.60;;;4.90;;
34234;SDS011;20500;49.856;20.290;2022-07-06T17:31:20;9.20;;;4.50;;
34234;SDS011;20500;49.856;20.290;2022-07-06T17:34:23;10.40;;;4.40;;
34234;SDS011;20500;49.856;20.290;2022-07-06T17:37:26;9.50;;;4.10;;
34234;SDS011;20500;49.856;20.290;2022-07-06T17:40:28;10.10;;;4.40;;
34234;SDS011;20500;49.856;20.290;2022-07-06T17:43:31;10.30;;;5.70;;
34234;SDS011;20500;49.856;20.290;2022-07-06T17:46:49;10.40;;;5.40;;
34234;SDS011;20500;49.856;20.290;2022-07-06T17:49:52;10.10;;;5.20;;
34234;SDS011;20500;49.856;20.290;2022-07-06T17:52:54;12.50;;;5.40;;
34234;SDS011;20500;49.856;20.290;2022-07-06T17:55:57;10.70;;;5.70;;
34234;SDS011;20500;49.856;20.290;2022-07-06T17:59:00;11.90;;;5.70;;
34234;SDS011;20500;49.856;20.290;2022-07-06T18:02:03;12.90;;;5.80;;
34234;SDS011;20500;49.856;20.290;2022-07-06T18:05:08;13.20;;;6.00;;
34234;SDS011;20500;49.856;20.290;2022-07-06T18:08:12;12.80;;;6.40;;
34234;SDS011;20500;49.856;20.290;2022-07-06T18:11:15;10.30;;;5.80;;
34234;SDS011;20500;49.856;20.290;2022-07-06T18:14:18;12.80;;;6.00;;
34234;SDS011;20500;49.856;20.290;2022-07-06T18:17:20;11.10;;;6.90;;